createdAt,value
2018-11-07T00:01:14.991Z,13.50
2018-11-07T00:03:43.815Z,13.50
2018-11-07T00:06:12.620Z,13.50
2018-11-07T00:08:41.400Z,13.50
2018-11-07T00:11:10.199Z,13.40
2018-11-07T00:13:38.960Z,13.40
2018-11-07T00:16:08.119Z,13.30
2018-11-07T00:18:37.267Z,13.10
2018-11-07T00:21:06.053Z,13.00
2018-11-07T00:23:34.848Z,13.10
2018-11-07T00:26:03.648Z,13.20
2018-11-07T00:28:32.439Z,13.30
2018-11-07T00:31:01.248Z,13.20
2018-11-07T00:33:30.009Z,13.00
2018-11-07T00:35:58.752Z,13.00
2018-11-07T00:38:27.523Z,13.10
2018-11-07T00:40:56.341Z,13.20
2018-11-07T00:43:25.465Z,13.20
2018-11-07T00:45:54.263Z,13.10
2018-11-07T00:48:23.223Z,13.10
2018-11-07T00:50:52.019Z,13.00
2018-11-07T00:53:20.817Z,12.80
2018-11-07T00:55:49.596Z,12.80
2018-11-07T00:58:18.367Z,12.80
2018-11-07T01:00:47.143Z,12.70
2018-11-07T01:03:15.918Z,12.70
2018-11-07T01:05:44.702Z,12.90
2018-11-07T01:08:13.616Z,13.00
2018-11-07T01:10:42.377Z,13.10
2018-11-07T01:13:11.486Z,13.10
2018-11-07T01:15:40.325Z,12.90
2018-11-07T01:18:09.099Z,13.00
2018-11-07T01:20:38.058Z,13.10
2018-11-07T01:23:06.843Z,13.00
2018-11-07T01:25:35.638Z,13.00
2018-11-07T01:28:04.625Z,13.10
2018-11-07T01:30:33.456Z,13.10
2018-11-07T01:33:02.225Z,13.20
2018-11-07T01:35:30.996Z,13.20
2018-11-07T01:37:59.804Z,13.20
2018-11-07T01:40:28.597Z,13.20
2018-11-07T01:42:57.393Z,13.20
2018-11-07T01:45:26.263Z,13.20
2018-11-07T01:47:55.078Z,13.20
2018-11-07T01:50:23.914Z,13.10
2018-11-07T01:52:52.677Z,13.20
2018-11-07T01:55:21.748Z,13.20
2018-11-07T01:57:50.573Z,13.20
2018-11-07T02:00:19.824Z,13.20
2018-11-07T02:02:48.648Z,13.10
2018-11-07T02:05:17.759Z,13.20
2018-11-07T02:07:46.796Z,13.20
2018-11-07T02:10:15.539Z,13.20
2018-11-07T02:12:44.334Z,13.20
2018-11-07T02:15:13.420Z,13.20
2018-11-07T02:17:42.536Z,13.20
2018-11-07T02:20:12.399Z,13.20
2018-11-07T02:22:41.596Z,13.20
2018-11-07T02:25:10.431Z,13.20
2018-11-07T02:27:39.999Z,13.20
2018-11-07T02:30:12.568Z,13.20
2018-11-07T02:32:41.400Z,13.10
2018-11-07T02:35:10.168Z,13.00
2018-11-07T02:37:38.972Z,13.10
2018-11-07T02:40:08.465Z,13.10
2018-11-07T02:42:37.667Z,13.00
2018-11-07T02:45:07.033Z,12.80
2018-11-07T02:47:35.823Z,12.70
2018-11-07T02:50:05.124Z,12.70
2018-11-07T02:52:33.920Z,12.70
2018-11-07T02:55:02.812Z,12.80
2018-11-07T02:57:31.623Z,12.80
2018-11-07T03:00:00.433Z,12.90
2018-11-07T03:02:29.187Z,13.00
2018-11-07T03:05:04.535Z,13.00
2018-11-07T03:07:33.284Z,13.00
2018-11-07T03:10:02.112Z,13.00
2018-11-07T03:12:30.885Z,13.00
2018-11-07T03:14:59.659Z,13.00
2018-11-07T03:17:28.420Z,13.00
2018-11-07T03:19:57.192Z,13.10
2018-11-07T03:22:26.003Z,13.00
2018-11-07T03:24:54.791Z,13.00
2018-11-07T03:27:23.851Z,13.00
2018-11-07T03:29:52.818Z,12.90
2018-11-07T03:32:21.579Z,12.80
2018-11-07T03:34:50.391Z,12.70
2018-11-07T03:37:19.159Z,12.80
2018-11-07T03:39:47.987Z,12.70
2018-11-07T03:42:17.005Z,12.60
2018-11-07T03:44:46.071Z,12.60
2018-11-07T03:47:14.831Z,12.60
2018-11-07T03:49:43.622Z,12.70
2018-11-07T03:52:12.407Z,12.80
2018-11-07T03:54:41.200Z,12.80
2018-11-07T03:57:09.966Z,12.80
2018-11-07T03:59:38.749Z,12.80
2018-11-07T04:02:07.517Z,12.80
2018-11-07T04:04:36.333Z,12.90
2018-11-07T04:07:05.513Z,12.90
2018-11-07T04:09:34.236Z,12.90
2018-11-07T04:12:03.012Z,12.90
2018-11-07T04:14:31.791Z,12.90
2018-11-07T04:17:00.584Z,12.90
2018-11-07T04:19:29.738Z,12.90
2018-11-07T04:21:58.790Z,13.00
2018-11-07T04:24:27.823Z,13.00
2018-11-07T04:26:56.584Z,13.00
2018-11-07T04:29:25.438Z,12.90
2018-11-07T04:31:54.192Z,12.90
2018-11-07T04:34:23.033Z,12.90
2018-11-07T04:36:51.833Z,12.90
2018-11-07T04:39:20.954Z,12.90
2018-11-07T04:41:49.780Z,12.90
2018-11-07T04:44:18.564Z,12.90
2018-11-07T04:46:47.352Z,12.90
2018-11-07T04:49:16.139Z,12.90
2018-11-07T04:51:44.905Z,13.00
2018-11-07T04:54:13.742Z,12.90
2018-11-07T04:56:42.507Z,12.90
2018-11-07T04:59:11.320Z,12.90
2018-11-07T05:01:40.101Z,12.90
2018-11-07T05:04:08.837Z,12.90
2018-11-07T05:06:37.951Z,12.90
2018-11-07T05:09:08.505Z,12.90
2018-11-07T05:11:37.643Z,12.90
2018-11-07T05:14:07.156Z,12.90
2018-11-07T05:16:36.151Z,12.90
2018-11-07T05:19:05.371Z,12.90
2018-11-07T05:21:34.455Z,12.90
2018-11-07T05:24:03.620Z,12.90
2018-11-07T05:26:33.131Z,12.90
2018-11-07T05:29:02.263Z,12.90
2018-11-07T05:31:31.342Z,12.80
2018-11-07T05:34:00.112Z,12.70
2018-11-07T05:36:29.224Z,12.70
2018-11-07T05:38:59.004Z,12.80
2018-11-07T05:41:28.120Z,12.80
2018-11-07T05:43:56.940Z,12.80
2018-11-07T05:46:26.003Z,12.80
2018-11-07T05:48:55.129Z,12.80
2018-11-07T05:51:24.285Z,12.80
2018-11-07T05:53:53.064Z,12.80
2018-11-07T05:56:22.398Z,12.80
2018-11-07T05:58:51.576Z,12.80
2018-11-07T06:01:21.452Z,12.70
2018-11-07T06:03:50.464Z,12.70
2018-11-07T06:06:19.243Z,12.70
2018-11-07T06:08:48.392Z,12.70
2018-11-07T06:11:17.463Z,12.70
2018-11-07T06:13:46.565Z,12.60
2018-11-07T06:16:15.691Z,12.60
2018-11-07T06:18:44.443Z,12.60
2018-11-07T06:21:13.558Z,12.70
2018-11-07T06:23:42.624Z,12.70
2018-11-07T06:26:11.723Z,12.70
2018-11-07T06:28:40.725Z,12.80
2018-11-07T06:31:09.703Z,12.80
2018-11-07T06:33:38.738Z,12.80
2018-11-07T06:36:07.781Z,12.70
2018-11-07T06:38:36.887Z,12.70
2018-11-07T06:41:06.180Z,12.70
2018-11-07T06:43:35.187Z,12.70
2018-11-07T06:46:04.219Z,12.50
2018-11-07T06:48:33.276Z,12.50
2018-11-07T06:51:02.305Z,12.60
2018-11-07T06:53:31.359Z,12.70
2018-11-07T06:56:00.333Z,12.70
2018-11-07T06:58:29.465Z,12.70
2018-11-07T07:00:58.516Z,12.70
2018-11-07T07:03:27.523Z,12.70
2018-11-07T07:05:56.539Z,12.70
2018-11-07T07:08:25.533Z,12.70
2018-11-07T07:10:54.324Z,12.70
2018-11-07T07:13:23.104Z,12.80
2018-11-07T07:15:52.055Z,12.70
2018-11-07T07:18:21.180Z,12.70
2018-11-07T07:20:50.276Z,12.70
2018-11-07T07:23:19.383Z,12.70
2018-11-07T07:25:48.510Z,12.70
2018-11-07T07:28:17.455Z,12.70
2018-11-07T07:30:46.437Z,12.70
2018-11-07T07:33:15.276Z,12.80
2018-11-07T07:35:44.237Z,12.80
2018-11-07T07:38:13.311Z,12.80
2018-11-07T07:40:42.431Z,12.70
2018-11-07T07:43:11.260Z,12.80
2018-11-07T07:45:40.479Z,12.70
2018-11-07T07:48:09.521Z,12.80
2018-11-07T07:50:38.589Z,12.80
2018-11-07T07:53:07.798Z,12.80
2018-11-07T07:55:36.883Z,12.80
2018-11-07T07:58:06.195Z,12.80
2018-11-07T08:00:35.469Z,12.80
2018-11-07T08:03:04.695Z,12.80
2018-11-07T08:05:33.507Z,12.90
2018-11-07T08:08:02.669Z,12.80
2018-11-07T08:10:31.752Z,12.80
2018-11-07T08:13:00.864Z,12.80
2018-11-07T08:15:29.697Z,12.80
2018-11-07T08:17:58.819Z,12.80
2018-11-07T08:20:27.927Z,12.70
2018-11-07T08:22:56.917Z,12.70
2018-11-07T08:25:25.950Z,12.70
2018-11-07T08:27:54.918Z,12.70
2018-11-07T08:30:23.779Z,12.70
2018-11-07T08:32:52.897Z,12.70
2018-11-07T08:35:21.996Z,12.80
2018-11-07T08:37:50.805Z,12.80
2018-11-07T08:40:23.109Z,12.90
2018-11-07T08:42:52.276Z,12.90
2018-11-07T08:45:21.358Z,12.90
2018-11-07T08:47:50.524Z,12.90
2018-11-07T08:50:20.751Z,12.90
2018-11-07T08:52:50.167Z,12.90
2018-11-07T08:55:21.259Z,12.80
2018-11-07T08:57:50.400Z,12.90
2018-11-07T09:00:20.777Z,12.90
2018-11-07T09:02:49.544Z,12.90
2018-11-07T09:05:19.587Z,13.00
2018-11-07T09:07:49.060Z,13.00
2018-11-07T09:10:19.562Z,13.00
2018-11-07T09:12:48.340Z,13.10
2018-11-07T09:15:18.728Z,13.10
2018-11-07T09:17:47.556Z,13.10
2018-11-07T09:20:19.859Z,13.00
2018-11-07T09:22:48.810Z,13.10
2018-11-07T09:25:17.933Z,13.10
2018-11-07T09:27:47.200Z,13.10
2018-11-07T09:30:20.707Z,13.00
2018-11-07T09:32:49.804Z,13.00
2018-11-07T09:35:19.377Z,13.10
2018-11-07T09:37:48.596Z,13.00
2018-11-07T09:40:18.996Z,13.10
2018-11-07T09:42:48.519Z,13.10
2018-11-07T09:45:19.132Z,13.20
2018-11-07T09:47:48.477Z,13.20
2018-11-07T09:50:18.186Z,13.30
2018-11-07T09:52:47.403Z,13.30
2018-11-07T09:55:17.759Z,13.40
2018-11-07T09:57:46.800Z,13.40
2018-11-07T10:00:17.525Z,13.40
2018-11-07T10:02:46.775Z,13.40
2018-11-07T10:05:16.735Z,13.40
2018-11-07T10:07:45.813Z,13.50
2018-11-07T10:10:16.554Z,13.50
2018-11-07T10:12:46.016Z,13.50
2018-11-07T10:15:15.117Z,13.50
2018-11-07T10:17:44.271Z,13.50
2018-11-07T10:20:15.402Z,13.50
2018-11-07T10:22:44.876Z,13.60
2018-11-07T10:25:14.428Z,13.60
2018-11-07T10:27:43.841Z,13.70
2018-11-07T10:30:14.939Z,13.70
2018-11-07T10:32:44.916Z,13.80
2018-11-07T10:35:14.124Z,13.80
2018-11-07T10:37:43.295Z,13.80
2018-11-07T10:40:19.831Z,13.80
2018-11-07T10:42:49.138Z,13.80
2018-11-07T10:45:18.324Z,13.80
2018-11-07T10:47:47.985Z,13.80
2018-11-07T10:50:17.993Z,13.80
2018-11-07T10:52:47.371Z,13.90
2018-11-07T10:55:17.008Z,13.90
2018-11-07T10:57:46.291Z,13.80
2018-11-07T11:00:21.195Z,13.90
2018-11-07T11:02:55.291Z,13.90
2018-11-07T11:05:24.415Z,13.90
2018-11-07T11:07:53.591Z,14.00
2018-11-07T11:10:22.934Z,14.00
2018-11-07T11:12:51.716Z,14.00
2018-11-07T11:15:20.504Z,14.00
2018-11-07T11:17:49.276Z,14.00
2018-11-07T11:20:18.266Z,14.10
2018-11-07T11:22:47.032Z,14.10
2018-11-07T11:25:15.791Z,14.10
2018-11-07T11:27:44.552Z,14.20
2018-11-07T11:30:13.311Z,14.20
2018-11-07T11:32:42.124Z,14.20
2018-11-07T11:35:11.865Z,14.30
2018-11-07T11:37:40.813Z,14.30
2018-11-07T11:40:11.584Z,14.30
2018-11-07T11:42:40.924Z,14.40
2018-11-07T11:45:11.408Z,14.40
2018-11-07T11:47:40.597Z,14.40
2018-11-07T11:50:12.251Z,14.40
2018-11-07T11:52:41.463Z,14.40
2018-11-07T11:55:10.982Z,14.40
2018-11-07T11:57:40.341Z,14.40
2018-11-07T12:00:12.627Z,14.50
2018-11-07T12:02:41.564Z,14.50
2018-11-07T12:05:11.937Z,14.50
2018-11-07T12:07:41.119Z,14.50
2018-11-07T12:10:19.920Z,14.50
2018-11-07T12:12:49.885Z,14.50
2018-11-07T12:15:19.842Z,14.50
2018-11-07T12:17:48.550Z,14.60
2018-11-07T12:20:17.464Z,14.60
2018-11-07T12:22:46.253Z,14.70
2018-11-07T12:25:15.831Z,14.70
2018-11-07T12:27:45.203Z,14.80
2018-11-07T12:30:19.258Z,14.80
2018-11-07T12:32:49.102Z,14.80
2018-11-07T12:35:18.723Z,14.90
2018-11-07T12:37:47.990Z,14.80
2018-11-07T12:40:17.852Z,14.90
2018-11-07T12:42:46.771Z,14.90
2018-11-07T12:45:16.442Z,14.90
2018-11-07T12:47:45.244Z,14.90
2018-11-07T12:50:23.056Z,14.90
2018-11-07T12:52:51.886Z,15.00
2018-11-07T12:55:21.703Z,15.00
2018-11-07T12:57:50.650Z,14.90
2018-11-07T13:00:25.397Z,14.90
2018-11-07T13:02:54.521Z,14.90
2018-11-07T13:05:24.566Z,14.90
2018-11-07T13:07:54.324Z,14.80
2018-11-07T13:10:23.578Z,14.80
2018-11-07T13:12:52.756Z,14.80
2018-11-07T13:15:21.612Z,14.80
2018-11-07T13:17:51.229Z,14.70
2018-11-07T13:20:21.455Z,14.70
2018-11-07T13:22:51.573Z,14.70
2018-11-07T13:25:21.069Z,14.60
2018-11-07T13:27:50.253Z,14.80
2018-11-07T13:30:22.442Z,14.90
2018-11-07T13:32:51.488Z,14.80
2018-11-07T13:35:20.839Z,14.90
2018-11-07T13:37:50.716Z,15.00
2018-11-07T13:40:21.001Z,15.00
2018-11-07T13:42:49.833Z,15.00
2018-11-07T13:45:20.399Z,15.10
2018-11-07T13:47:50.500Z,15.10
2018-11-07T13:50:19.880Z,15.10
2018-11-07T13:52:49.159Z,15.10
2018-11-07T13:55:18.264Z,15.10
2018-11-07T13:57:47.452Z,15.10
2018-11-07T14:00:23.739Z,15.10
2018-11-07T14:02:53.578Z,15.10
2018-11-07T14:05:22.821Z,15.10
2018-11-07T14:07:51.549Z,15.00
2018-11-07T14:10:21.967Z,15.10
2018-11-07T14:12:51.386Z,15.10
2018-11-07T14:15:20.699Z,15.10
2018-11-07T14:17:49.863Z,15.10
2018-11-07T14:20:18.722Z,15.10
2018-11-07T14:22:47.555Z,15.20
2018-11-07T14:25:16.607Z,15.10
2018-11-07T14:27:45.874Z,15.10
2018-11-07T14:30:18.726Z,15.10
2018-11-07T14:32:52.062Z,15.20
2018-11-07T14:35:21.313Z,15.20
2018-11-07T14:37:50.307Z,15.10
2018-11-07T14:40:19.061Z,15.20
2018-11-07T14:42:47.856Z,15.20
2018-11-07T14:45:16.635Z,15.10
2018-11-07T14:47:45.450Z,15.10
2018-11-07T14:50:14.727Z,15.10
2018-11-07T14:52:43.515Z,15.10
2018-11-07T14:55:12.873Z,15.10
2018-11-07T14:57:41.740Z,15.10
2018-11-07T15:00:11.823Z,15.10
2018-11-07T15:02:41.567Z,15.00
2018-11-07T15:05:11.677Z,15.00
2018-11-07T15:07:41.180Z,14.90
2018-11-07T15:10:11.122Z,14.90
2018-11-07T15:12:39.894Z,15.00
2018-11-07T15:15:11.073Z,14.90
2018-11-07T15:17:39.942Z,14.70
2018-11-07T15:20:10.262Z,14.70
2018-11-07T15:22:39.092Z,14.80
2018-11-07T15:25:09.061Z,14.80
2018-11-07T15:27:38.114Z,14.80
2018-11-07T15:30:08.796Z,14.80
2018-11-07T15:32:37.680Z,14.80
2018-11-07T15:35:07.031Z,14.80
2018-11-07T15:37:35.929Z,14.80
2018-11-07T15:40:06.336Z,14.80
2018-11-07T15:42:35.312Z,14.70
2018-11-07T15:45:04.645Z,14.60
2018-11-07T15:47:33.475Z,14.70
2018-11-07T15:50:07.886Z,14.60
2018-11-07T15:52:36.729Z,14.60
2018-11-07T15:55:06.269Z,14.60
2018-11-07T15:57:35.070Z,14.60
2018-11-07T16:00:04.179Z,14.50
2018-11-07T16:02:32.948Z,14.50
2018-11-07T16:05:01.996Z,14.50
2018-11-07T16:07:30.776Z,14.50
2018-11-07T16:09:59.622Z,14.40
2018-11-07T16:12:28.398Z,14.30
2018-11-07T16:14:57.537Z,14.30
2018-11-07T16:17:26.295Z,13.80
2018-11-07T16:19:55.449Z,13.60
2018-11-07T16:22:24.592Z,13.80
2018-11-07T16:24:53.650Z,13.90
2018-11-07T16:27:22.428Z,13.90
2018-11-07T16:29:51.266Z,13.90
2018-11-07T16:32:20.268Z,14.00
2018-11-07T16:34:49.571Z,14.00
2018-11-07T16:37:18.734Z,14.00
2018-11-07T16:39:47.963Z,14.00
2018-11-07T16:42:16.968Z,13.90
2018-11-07T16:44:45.789Z,13.90
2018-11-07T16:47:14.792Z,13.90
2018-11-07T16:49:43.556Z,13.90
2018-11-07T16:52:12.375Z,13.90
2018-11-07T16:54:41.546Z,13.80
2018-11-07T16:57:10.623Z,13.80
2018-11-07T16:59:39.432Z,13.80
2018-11-07T17:02:08.264Z,13.80
2018-11-07T17:04:37.174Z,13.70
2018-11-07T17:07:06.368Z,13.70
2018-11-07T17:09:35.366Z,13.70
2018-11-07T17:12:04.216Z,13.70
2018-11-07T17:14:33.363Z,13.60
2018-11-07T17:17:02.152Z,13.60
2018-11-07T17:19:31.417Z,13.50
2018-11-07T17:22:01.160Z,13.40
2018-11-07T17:24:30.468Z,13.30
2018-11-07T17:26:59.435Z,13.30
2018-11-07T17:29:28.640Z,13.40
2018-11-07T17:31:57.772Z,13.40
2018-11-07T17:34:26.731Z,13.40
2018-11-07T17:36:55.842Z,13.40
2018-11-07T17:39:24.829Z,13.30
2018-11-07T17:41:53.816Z,13.30
2018-11-07T17:44:22.719Z,13.30
2018-11-07T17:46:51.895Z,13.30
2018-11-07T17:49:21.654Z,13.30
2018-11-07T17:51:50.685Z,13.30
2018-11-07T17:54:19.704Z,13.20
2018-11-07T17:56:48.806Z,13.20
2018-11-07T17:59:17.906Z,13.20
2018-11-07T18:01:46.812Z,13.00
2018-11-07T18:04:15.657Z,12.90
2018-11-07T18:06:44.452Z,13.00
2018-11-07T18:09:13.490Z,13.00
2018-11-07T18:11:42.567Z,13.00
2018-11-07T18:14:11.314Z,13.10
2018-11-07T18:16:40.436Z,13.10
2018-11-07T18:19:09.643Z,13.00
2018-11-07T18:21:38.630Z,13.00
2018-11-07T18:24:07.647Z,13.00
2018-11-07T18:26:36.692Z,13.00
2018-11-07T18:29:06.310Z,13.00
2018-11-07T18:31:35.411Z,13.00
2018-11-07T18:34:04.663Z,13.00
2018-11-07T18:36:33.779Z,13.00
2018-11-07T18:39:02.977Z,12.90
2018-11-07T18:41:32.121Z,12.80
2018-11-07T18:44:01.140Z,12.80
2018-11-07T18:46:30.270Z,12.80
2018-11-07T18:48:59.100Z,12.80
2018-11-07T18:51:27.948Z,12.70
2018-11-07T18:53:57.196Z,12.20
2018-11-07T18:56:26.165Z,12.30
2018-11-07T18:58:55.271Z,12.30
2018-11-07T19:01:23.989Z,12.20
2018-11-07T19:03:53.149Z,12.10
2018-11-07T19:06:22.251Z,12.20
2018-11-07T19:08:51.571Z,12.20
2018-11-07T19:11:20.420Z,12.10
2018-11-07T19:13:49.253Z,11.90
2018-11-07T19:16:18.648Z,12.00
2018-11-07T19:18:47.932Z,12.00
2018-11-07T19:21:16.975Z,12.10
2018-11-07T19:23:45.760Z,12.20
2018-11-07T19:26:14.860Z,12.20
2018-11-07T19:28:43.947Z,12.20
2018-11-07T19:31:12.857Z,12.30
2018-11-07T19:33:42.056Z,12.30
2018-11-07T19:36:11.136Z,12.30
2018-11-07T19:38:40.513Z,12.20
2018-11-07T19:41:09.648Z,12.00
2018-11-07T19:43:38.777Z,12.00
2018-11-07T19:46:07.848Z,12.10
2018-11-07T19:48:37.050Z,12.10
2018-11-07T19:51:06.610Z,12.10
2018-11-07T19:53:35.675Z,12.00
2018-11-07T19:56:04.502Z,11.90
2018-11-07T19:58:33.719Z,12.00
2018-11-07T20:01:02.818Z,12.10
2018-11-07T20:03:32.453Z,12.10
2018-11-07T20:06:01.420Z,12.10
2018-11-07T20:08:30.431Z,12.10
2018-11-07T20:10:59.214Z,12.10
2018-11-07T20:13:28.428Z,12.10
2018-11-07T20:15:57.581Z,12.10
2018-11-07T20:18:26.354Z,12.10
2018-11-07T20:20:55.163Z,12.10
2018-11-07T20:23:24.028Z,12.10
2018-11-07T20:25:53.141Z,12.10
2018-11-07T20:28:21.931Z,12.10
2018-11-07T20:30:54.865Z,12.10
2018-11-07T20:33:24.064Z,12.10
2018-11-07T20:35:58.083Z,12.10
2018-11-07T20:38:27.381Z,11.80
2018-11-07T20:40:56.292Z,11.50
2018-11-07T20:43:25.670Z,11.40
2018-11-07T20:45:54.760Z,11.40
2018-11-07T20:48:23.822Z,11.20
2018-11-07T20:50:52.971Z,11.20
2018-11-07T20:53:22.041Z,11.30
2018-11-07T20:55:51.145Z,11.10
2018-11-07T20:58:20.470Z,11.10
2018-11-07T21:00:49.611Z,11.00
2018-11-07T21:03:18.718Z,11.10
2018-11-07T21:05:47.704Z,11.20
2018-11-07T21:08:16.781Z,11.30
2018-11-07T21:10:45.861Z,11.40
2018-11-07T21:13:14.976Z,11.50
2018-11-07T21:15:44.102Z,11.50
2018-11-07T21:18:13.258Z,11.50
2018-11-07T21:20:42.341Z,11.60
2018-11-07T21:23:11.148Z,11.70
2018-11-07T21:25:40.152Z,11.60
2018-11-07T21:28:09.242Z,11.60
2018-11-07T21:30:38.255Z,11.60
2018-11-07T21:33:07.041Z,11.60
2018-11-07T21:35:36.219Z,11.60
2018-11-07T21:38:05.300Z,11.60
2018-11-07T21:40:34.152Z,11.30
2018-11-07T21:43:03.377Z,11.40
2018-11-07T21:45:32.367Z,11.40
2018-11-07T21:48:01.208Z,11.40
2018-11-07T21:50:30.064Z,11.40
2018-11-07T21:52:59.196Z,11.30
2018-11-07T21:55:28.327Z,11.20
2018-11-07T21:57:57.373Z,11.30
2018-11-07T22:00:26.475Z,11.30
2018-11-07T22:02:55.620Z,11.40
2018-11-07T22:05:24.744Z,11.40
2018-11-07T22:07:53.712Z,11.40
2018-11-07T22:10:22.930Z,11.50
2018-11-07T22:12:51.758Z,11.50
2018-11-07T22:15:20.917Z,11.50
2018-11-07T22:17:50.025Z,11.50
2018-11-07T22:20:20.930Z,11.50
2018-11-07T22:22:49.923Z,11.50
2018-11-07T22:25:18.737Z,11.60
2018-11-07T22:27:47.546Z,11.50
2018-11-07T22:30:17.634Z,11.60
2018-11-07T22:32:46.803Z,11.50
2018-11-07T22:35:17.099Z,11.50
2018-11-07T22:37:46.627Z,11.50
2018-11-07T22:40:16.989Z,11.50
2018-11-07T22:42:46.080Z,11.50
2018-11-07T22:45:15.244Z,11.50
2018-11-07T22:47:44.473Z,11.40
2018-11-07T22:50:14.552Z,11.40
2018-11-07T22:52:44.436Z,11.40
2018-11-07T22:55:13.310Z,11.40
2018-11-07T22:57:42.107Z,11.40
2018-11-07T23:00:22.093Z,11.40
2018-11-07T23:02:53.423Z,11.30
2018-11-07T23:05:22.288Z,11.30
2018-11-07T23:07:51.862Z,11.30
2018-11-07T23:10:20.982Z,11.30
2018-11-07T23:12:50.466Z,11.30
2018-11-07T23:15:24.784Z,11.40
2018-11-07T23:17:53.615Z,11.40
2018-11-07T23:20:22.718Z,11.40
2018-11-07T23:22:51.738Z,11.40
2018-11-07T23:25:20.657Z,11.40
2018-11-07T23:27:49.662Z,11.40
2018-11-07T23:30:18.765Z,11.30
2018-11-07T23:32:47.937Z,11.40
2018-11-07T23:35:17.011Z,11.40
2018-11-07T23:37:45.764Z,11.50
2018-11-07T23:40:14.617Z,11.40
2018-11-07T23:42:43.485Z,11.40
2018-11-07T23:45:12.503Z,11.40
2018-11-07T23:47:41.483Z,11.40
2018-11-07T23:50:10.488Z,11.40
2018-11-07T23:52:44.703Z,11.40
2018-11-07T23:55:13.819Z,11.30
2018-11-07T23:57:43.043Z,11.30
